sensor_id;sensor_type;location;lat;lon;timestamp;P1;durP1;ratioP1;P2;durP2;ratioP2
25637;SDS011;13496;51.040;13.680;2023-05-07T00:04:32;3.90;;;3.60;;
25637;SDS011;13496;51.040;13.680;2023-05-07T00:09:37;4.00;;;3.70;;
25637;SDS011;13496;51.040;13.680;2023-05-07T00:14:39;3.58;;;3.28;;
25637;SDS011;13496;51.040;13.680;2023-05-07T00:19:41;3.80;;;3.50;;
25637;SDS011;13496;51.040;13.680;2023-05-07T00:24:42;3.70;;;3.40;;
25637;SDS011;13496;51.040;13.680;2023-05-07T00:29:44;3.67;;;3.38;;
25637;SDS011;13496;51.040;13.680;2023-05-07T00:34:46;3.72;;;3.42;;
25637;SDS011;13496;51.040;13.680;2023-05-07T00:39:47;4.30;;;3.92;;
25637;SDS011;13496;51.040;13.680;2023-05-07T00:44:49;3.72;;;3.40;;
25637;SDS011;13496;51.040;13.680;2023-05-07T00:49:51;3.63;;;3.33;;
25637;SDS011;13496;51.040;13.680;2023-05-07T00:54:53;3.95;;;3.65;;
25637;SDS011;13496;51.040;13.680;2023-05-07T00:59:56;3.97;;;3.67;;
25637;SDS011;13496;51.040;13.680;2023-05-07T01:04:57;3.60;;;3.30;;
25637;SDS011;13496;51.040;13.680;2023-05-07T01:10:01;3.45;;;3.15;;
25637;SDS011;13496;51.040;13.680;2023-05-07T01:15:04;3.70;;;3.40;;
25637;SDS011;13496;51.040;13.680;2023-05-07T01:20:09;3.58;;;3.28;;
25637;SDS011;13496;51.040;13.680;2023-05-07T01:25:15;3.55;;;3.25;;
25637;SDS011;13496;51.040;13.680;2023-05-07T01:30:22;3.75;;;3.45;;
25637;SDS011;13496;51.040;13.680;2023-05-07T01:35:25;3.47;;;3.17;;
25637;SDS011;13496;51.040;13.680;2023-05-07T01:40:30;3.78;;;3.47;;
25637;SDS011;13496;51.040;13.680;2023-05-07T01:45:32;3.88;;;3.58;;
25637;SDS011;13496;51.040;13.680;2023-05-07T01:50:35;3.55;;;3.25;;
25637;SDS011;13496;51.040;13.680;2023-05-07T01:55:38;3.60;;;3.30;;
25637;SDS011;13496;51.040;13.680;2023-05-07T02:00:40;3.50;;;3.20;;
25637;SDS011;13496;51.040;13.680;2023-05-07T02:05:43;3.47;;;3.17;;
25637;SDS011;13496;51.040;13.680;2023-05-07T02:10:52;3.42;;;3.13;;
25637;SDS011;13496;51.040;13.680;2023-05-07T02:15:55;3.90;;;3.60;;
25637;SDS011;13496;51.040;13.680;2023-05-07T02:20:58;3.95;;;3.65;;
25637;SDS011;13496;51.040;13.680;2023-05-07T02:26:00;3.45;;;3.25;;
25637;SDS011;13496;51.040;13.680;2023-05-07T02:31:02;3.38;;;3.08;;
25637;SDS011;13496;51.040;13.680;2023-05-07T02:36:08;3.25;;;2.95;;
25637;SDS011;13496;51.040;13.680;2023-05-07T02:41:16;3.67;;;3.38;;
25637;SDS011;13496;51.040;13.680;2023-05-07T02:46:18;3.72;;;3.42;;
25637;SDS011;13496;51.040;13.680;2023-05-07T02:51:25;3.10;;;2.90;;
25637;SDS011;13496;51.040;13.680;2023-05-07T02:56:28;3.17;;;2.97;;
25637;SDS011;13496;51.040;13.680;2023-05-07T03:01:30;3.10;;;2.90;;
25637;SDS011;13496;51.040;13.680;2023-05-07T03:06:40;4.38;;;3.10;;
25637;SDS011;13496;51.040;13.680;2023-05-07T03:11:42;3.53;;;3.22;;
25637;SDS011;13496;51.040;13.680;2023-05-07T03:16:43;3.50;;;3.20;;
25637;SDS011;13496;51.040;13.680;2023-05-07T03:21:45;3.63;;;3.33;;
25637;SDS011;13496;51.040;13.680;2023-05-07T03:26:47;3.40;;;3.20;;
25637;SDS011;13496;51.040;13.680;2023-05-07T03:31:49;3.85;;;3.55;;
25637;SDS011;13496;51.040;13.680;2023-05-07T03:36:50;3.90;;;3.60;;
25637;SDS011;13496;51.040;13.680;2023-05-07T03:41:53;3.58;;;3.28;;
25637;SDS011;13496;51.040;13.680;2023-05-07T03:46:55;3.38;;;3.08;;
25637;SDS011;13496;51.040;13.680;2023-05-07T03:51:57;3.85;;;3.55;;
25637;SDS011;13496;51.040;13.680;2023-05-07T03:56:59;3.85;;;3.55;;
25637;SDS011;13496;51.040;13.680;2023-05-07T04:02:01;3.78;;;3.42;;
25637;SDS011;13496;51.040;13.680;2023-05-07T04:07:05;3.53;;;3.33;;
25637;SDS011;13496;51.040;13.680;2023-05-07T04:12:13;3.13;;;2.92;;
25637;SDS011;13496;51.040;13.680;2023-05-07T04:17:15;3.80;;;3.50;;
25637;SDS011;13496;51.040;13.680;2023-05-07T04:22:16;3.60;;;3.30;;
25637;SDS011;13496;51.040;13.680;2023-05-07T04:27:18;3.50;;;3.30;;
25637;SDS011;13496;51.040;13.680;2023-05-07T04:32:20;3.30;;;3.00;;
25637;SDS011;13496;51.040;13.680;2023-05-07T04:37:22;3.17;;;2.97;;
25637;SDS011;13496;51.040;13.680;2023-05-07T04:42:24;3.17;;;2.95;;
25637;SDS011;13496;51.040;13.680;2023-05-07T04:47:26;3.47;;;3.28;;
25637;SDS011;13496;51.040;13.680;2023-05-07T04:52:28;3.30;;;3.00;;
25637;SDS011;13496;51.040;13.680;2023-05-07T04:57:30;3.53;;;3.22;;
25637;SDS011;13496;51.040;13.680;2023-05-07T05:02:31;3.17;;;2.88;;
25637;SDS011;13496;51.040;13.680;2023-05-07T05:07:34;3.28;;;3.08;;
25637;SDS011;13496;51.040;13.680;2023-05-07T05:12:36;3.70;;;3.40;;
25637;SDS011;13496;51.040;13.680;2023-05-07T05:17:39;3.08;;;2.83;;
25637;SDS011;13496;51.040;13.680;2023-05-07T05:22:42;3.38;;;3.08;;
25637;SDS011;13496;51.040;13.680;2023-05-07T05:27:44;3.40;;;3.10;;
25637;SDS011;13496;51.040;13.680;2023-05-07T05:32:46;3.08;;;2.83;;
25637;SDS011;13496;51.040;13.680;2023-05-07T05:37:48;3.60;;;3.30;;
25637;SDS011;13496;51.040;13.680;2023-05-07T05:42:52;3.20;;;3.00;;
25637;SDS011;13496;51.040;13.680;2023-05-07T05:47:55;3.38;;;3.15;;
25637;SDS011;13496;51.040;13.680;2023-05-07T05:52:58;3.58;;;3.28;;
25637;SDS011;13496;51.040;13.680;2023-05-07T05:58:03;3.40;;;3.13;;
25637;SDS011;13496;51.040;13.680;2023-05-07T06:03:09;3.00;;;2.80;;
25637;SDS011;13496;51.040;13.680;2023-05-07T06:08:12;3.28;;;3.08;;
25637;SDS011;13496;51.040;13.680;2023-05-07T06:13:14;3.70;;;3.40;;
25637;SDS011;13496;51.040;13.680;2023-05-07T06:18:17;3.20;;;3.00;;
25637;SDS011;13496;51.040;13.680;2023-05-07T06:23:19;3.05;;;2.85;;
25637;SDS011;13496;51.040;13.680;2023-05-07T06:28:21;3.00;;;2.80;;
25637;SDS011;13496;51.040;13.680;2023-05-07T06:33:23;3.42;;;3.13;;
25637;SDS011;13496;51.040;13.680;2023-05-07T06:38:25;2.95;;;2.75;;
25637;SDS011;13496;51.040;13.680;2023-05-07T06:43:26;3.30;;;3.00;;
25637;SDS011;13496;51.040;13.680;2023-05-07T06:48:47;3.13;;;2.92;;
25637;SDS011;13496;51.040;13.680;2023-05-07T06:53:49;3.00;;;2.80;;
25637;SDS011;13496;51.040;13.680;2023-05-07T06:58:51;2.95;;;2.75;;
25637;SDS011;13496;51.040;13.680;2023-05-07T07:03:53;3.28;;;3.00;;
25637;SDS011;13496;51.040;13.680;2023-05-07T07:08:57;2.90;;;2.70;;
25637;SDS011;13496;51.040;13.680;2023-05-07T07:14:00;3.17;;;2.97;;
25637;SDS011;13496;51.040;13.680;2023-05-07T07:19:04;2.97;;;2.78;;
25637;SDS011;13496;51.040;13.680;2023-05-07T07:24:06;3.50;;;3.20;;
25637;SDS011;13496;51.040;13.680;2023-05-07T07:29:08;2.92;;;2.72;;
25637;SDS011;13496;51.040;13.680;2023-05-07T07:34:10;2.85;;;2.65;;
25637;SDS011;13496;51.040;13.680;2023-05-07T07:39:12;2.70;;;2.50;;
25637;SDS011;13496;51.040;13.680;2023-05-07T07:44:15;3.20;;;3.00;;
25637;SDS011;13496;51.040;13.680;2023-05-07T07:49:17;2.97;;;2.78;;
25637;SDS011;13496;51.040;13.680;2023-05-07T07:54:19;3.08;;;2.88;;
25637;SDS011;13496;51.040;13.680;2023-05-07T07:59:21;3.40;;;3.10;;
25637;SDS011;13496;51.040;13.680;2023-05-07T08:04:25;3.13;;;2.90;;
25637;SDS011;13496;51.040;13.680;2023-05-07T08:09:28;2.80;;;2.60;;
25637;SDS011;13496;51.040;13.680;2023-05-07T08:14:33;3.22;;;2.97;;
25637;SDS011;13496;51.040;13.680;2023-05-07T08:19:36;2.90;;;2.70;;
25637;SDS011;13496;51.040;13.680;2023-05-07T08:24:39;2.78;;;2.58;;
25637;SDS011;13496;51.040;13.680;2023-05-07T08:29:41;3.25;;;2.95;;
25637;SDS011;13496;51.040;13.680;2023-05-07T08:34:43;2.65;;;2.45;;
25637;SDS011;13496;51.040;13.680;2023-05-07T08:39:45;2.95;;;2.75;;
25637;SDS011;13496;51.040;13.680;2023-05-07T08:44:53;3.30;;;2.65;;
25637;SDS011;13496;51.040;13.680;2023-05-07T08:49:59;2.88;;;2.67;;
25637;SDS011;13496;51.040;13.680;2023-05-07T08:55:01;2.97;;;2.78;;
25637;SDS011;13496;51.040;13.680;2023-05-07T09:00:04;3.15;;;2.85;;
25637;SDS011;13496;51.040;13.680;2023-05-07T09:05:09;2.80;;;2.60;;
25637;SDS011;13496;51.040;13.680;2023-05-07T09:10:12;3.05;;;2.50;;
25637;SDS011;13496;51.040;13.680;2023-05-07T09:15:15;3.08;;;2.70;;
25637;SDS011;13496;51.040;13.680;2023-05-07T09:20:19;3.17;;;2.65;;
25637;SDS011;13496;51.040;13.680;2023-05-07T09:25:31;5.82;;;2.70;;
25637;SDS011;13496;51.040;13.680;2023-05-07T09:30:38;2.60;;;2.40;;
25637;SDS011;13496;51.040;13.680;2023-05-07T09:35:42;2.50;;;2.30;;
25637;SDS011;13496;51.040;13.680;2023-05-07T09:41:01;3.15;;;2.85;;
25637;SDS011;13496;51.040;13.680;2023-05-07T09:46:07;8.35;;;2.53;;
25637;SDS011;13496;51.040;13.680;2023-05-07T09:51:18;3.38;;;2.70;;
25637;SDS011;13496;51.040;13.680;2023-05-07T09:56:29;3.97;;;2.75;;
25637;SDS011;13496;51.040;13.680;2023-05-07T10:01:32;2.83;;;2.60;;
25637;SDS011;13496;51.040;13.680;2023-05-07T10:06:37;2.75;;;2.55;;
25637;SDS011;13496;51.040;13.680;2023-05-07T10:11:40;3.17;;;2.60;;
25637;SDS011;13496;51.040;13.680;2023-05-07T10:16:42;4.28;;;2.80;;
25637;SDS011;13496;51.040;13.680;2023-05-07T10:21:55;2.72;;;2.53;;
25637;SDS011;13496;51.040;13.680;2023-05-07T10:27:05;3.15;;;2.38;;
25637;SDS011;13496;51.040;13.680;2023-05-07T10:32:19;2.90;;;2.65;;
25637;SDS011;13496;51.040;13.680;2023-05-07T10:37:37;2.90;;;2.60;;
25637;SDS011;13496;51.040;13.680;2023-05-07T10:42:52;2.75;;;2.53;;
25637;SDS011;13496;51.040;13.680;2023-05-07T10:53:21;3.45;;;3.13;;
25637;SDS011;13496;51.040;13.680;2023-05-07T10:58:35;3.90;;;2.75;;
25637;SDS011;13496;51.040;13.680;2023-05-07T11:04:25;5.30;;;3.92;;
25637;SDS011;13496;51.040;13.680;2023-05-07T11:14:58;6.00;;;4.40;;
25637;SDS011;13496;51.040;13.680;2023-05-07T11:20:08;6.05;;;5.28;;
25637;SDS011;13496;51.040;13.680;2023-05-07T11:25:24;6.68;;;4.60;;
25637;SDS011;13496;51.040;13.680;2023-05-07T11:30:35;8.27;;;5.22;;
25637;SDS011;13496;51.040;13.680;2023-05-07T11:35:39;9.15;;;6.13;;
25637;SDS011;13496;51.040;13.680;2023-05-07T11:40:49;6.95;;;5.45;;
25637;SDS011;13496;51.040;13.680;2023-05-07T11:45:52;6.97;;;5.50;;
25637;SDS011;13496;51.040;13.680;2023-05-07T11:51:00;8.02;;;6.65;;
25637;SDS011;13496;51.040;13.680;2023-05-07T11:56:07;8.90;;;6.15;;
25637;SDS011;13496;51.040;13.680;2023-05-07T12:01:10;8.80;;;6.45;;
25637;SDS011;13496;51.040;13.680;2023-05-07T12:06:14;9.05;;;6.47;;
25637;SDS011;13496;51.040;13.680;2023-05-07T12:11:21;9.45;;;6.80;;
25637;SDS011;13496;51.040;13.680;2023-05-07T12:16:24;9.77;;;7.00;;
25637;SDS011;13496;51.040;13.680;2023-05-07T12:21:26;9.88;;;6.90;;
25637;SDS011;13496;51.040;13.680;2023-05-07T12:26:28;12.43;;;6.82;;
25637;SDS011;13496;51.040;13.680;2023-05-07T12:31:30;10.52;;;7.07;;
25637;SDS011;13496;51.040;13.680;2023-05-07T12:36:38;11.60;;;7.05;;
25637;SDS011;13496;51.040;13.680;2023-05-07T12:41:56;9.73;;;7.45;;
25637;SDS011;13496;51.040;13.680;2023-05-07T12:47:03;11.70;;;7.32;;
25637;SDS011;13496;51.040;13.680;2023-05-07T12:52:05;9.00;;;7.00;;
25637;SDS011;13496;51.040;13.680;2023-05-07T12:57:08;8.98;;;7.03;;
25637;SDS011;13496;51.040;13.680;2023-05-07T13:02:10;9.65;;;6.82;;
25637;SDS011;13496;51.040;13.680;2023-05-07T13:07:13;10.18;;;7.55;;
25637;SDS011;13496;51.040;13.680;2023-05-07T13:12:15;11.82;;;7.63;;
25637;SDS011;13496;51.040;13.680;2023-05-07T13:17:17;10.57;;;7.60;;
25637;SDS011;13496;51.040;13.680;2023-05-07T13:22:19;10.80;;;7.90;;
25637;SDS011;13496;51.040;13.680;2023-05-07T13:27:21;8.30;;;7.38;;
25637;SDS011;13496;51.040;13.680;2023-05-07T13:32:23;10.00;;;7.82;;
25637;SDS011;13496;51.040;13.680;2023-05-07T13:37:25;10.10;;;8.23;;
25637;SDS011;13496;51.040;13.680;2023-05-07T13:42:26;10.48;;;7.68;;
25637;SDS011;13496;51.040;13.680;2023-05-07T13:47:28;10.43;;;7.68;;
25637;SDS011;13496;51.040;13.680;2023-05-07T13:52:30;10.85;;;7.30;;
25637;SDS011;13496;51.040;13.680;2023-05-07T13:57:32;9.07;;;7.28;;
25637;SDS011;13496;51.040;13.680;2023-05-07T14:02:33;9.45;;;6.82;;
25637;SDS011;13496;51.040;13.680;2023-05-07T14:07:35;8.77;;;7.03;;
25637;SDS011;13496;51.040;13.680;2023-05-07T14:12:37;10.25;;;7.20;;
25637;SDS011;13496;51.040;13.680;2023-05-07T14:17:39;11.30;;;6.88;;
25637;SDS011;13496;51.040;13.680;2023-05-07T14:22:41;9.52;;;6.80;;
25637;SDS011;13496;51.040;13.680;2023-05-07T14:27:42;8.27;;;6.50;;
25637;SDS011;13496;51.040;13.680;2023-05-07T14:32:44;8.35;;;6.75;;
25637;SDS011;13496;51.040;13.680;2023-05-07T14:37:46;11.43;;;6.93;;
25637;SDS011;13496;51.040;13.680;2023-05-07T14:42:47;10.57;;;6.78;;
25637;SDS011;13496;51.040;13.680;2023-05-07T14:47:49;7.97;;;6.72;;
25637;SDS011;13496;51.040;13.680;2023-05-07T14:52:51;8.73;;;6.70;;
25637;SDS011;13496;51.040;13.680;2023-05-07T14:57:53;7.65;;;6.40;;
25637;SDS011;13496;51.040;13.680;2023-05-07T15:02:56;9.85;;;6.85;;
25637;SDS011;13496;51.040;13.680;2023-05-07T15:08:12;7.97;;;6.43;;
25637;SDS011;13496;51.040;13.680;2023-05-07T15:13:13;8.05;;;6.30;;
25637;SDS011;13496;51.040;13.680;2023-05-07T15:18:15;7.38;;;6.50;;
25637;SDS011;13496;51.040;13.680;2023-05-07T15:23:17;8.23;;;5.85;;
25637;SDS011;13496;51.040;13.680;2023-05-07T15:28:22;8.20;;;6.25;;
25637;SDS011;13496;51.040;13.680;2023-05-07T15:33:25;7.15;;;6.10;;
25637;SDS011;13496;51.040;13.680;2023-05-07T15:38:27;10.38;;;6.53;;
25637;SDS011;13496;51.040;13.680;2023-05-07T15:43:29;7.22;;;5.75;;
25637;SDS011;13496;51.040;13.680;2023-05-07T15:48:30;9.63;;;6.53;;
25637;SDS011;13496;51.040;13.680;2023-05-07T15:53:32;7.90;;;6.38;;
25637;SDS011;13496;51.040;13.680;2023-05-07T15:58:35;7.80;;;6.28;;
25637;SDS011;13496;51.040;13.680;2023-05-07T16:03:37;8.73;;;6.43;;
25637;SDS011;13496;51.040;13.680;2023-05-07T16:08:40;7.75;;;6.95;;
25637;SDS011;13496;51.040;13.680;2023-05-07T16:13:44;7.53;;;5.93;;
25637;SDS011;13496;51.040;13.680;2023-05-07T16:18:46;12.95;;;7.00;;
25637;SDS011;13496;51.040;13.680;2023-05-07T16:23:47;8.00;;;6.30;;
25637;SDS011;13496;51.040;13.680;2023-05-07T16:28:50;9.48;;;6.97;;
25637;SDS011;13496;51.040;13.680;2023-05-07T16:33:52;7.97;;;6.70;;
25637;SDS011;13496;51.040;13.680;2023-05-07T16:38:54;8.85;;;7.05;;
25637;SDS011;13496;51.040;13.680;2023-05-07T16:43:56;9.38;;;6.93;;
25637;SDS011;13496;51.040;13.680;2023-05-07T16:48:58;7.68;;;6.45;;
25637;SDS011;13496;51.040;13.680;2023-05-07T16:54:01;9.02;;;6.68;;
25637;SDS011;13496;51.040;13.680;2023-05-07T16:59:03;10.93;;;6.95;;
25637;SDS011;13496;51.040;13.680;2023-05-07T17:04:05;9.75;;;7.00;;
25637;SDS011;13496;51.040;13.680;2023-05-07T17:09:06;10.23;;;7.25;;
25637;SDS011;13496;51.040;13.680;2023-05-07T17:14:09;8.32;;;7.53;;
25637;SDS011;13496;51.040;13.680;2023-05-07T17:19:11;9.18;;;7.10;;
25637;SDS011;13496;51.040;13.680;2023-05-07T17:24:13;10.88;;;7.00;;
25637;SDS011;13496;51.040;13.680;2023-05-07T17:29:15;11.25;;;7.22;;
25637;SDS011;13496;51.040;13.680;2023-05-07T17:34:16;8.43;;;6.63;;
25637;SDS011;13496;51.040;13.680;2023-05-07T17:39:18;7.43;;;6.63;;
25637;SDS011;13496;51.040;13.680;2023-05-07T17:44:20;9.05;;;6.68;;
25637;SDS011;13496;51.040;13.680;2023-05-07T17:49:21;7.82;;;6.68;;
25637;SDS011;13496;51.040;13.680;2023-05-07T17:54:23;7.53;;;6.72;;
25637;SDS011;13496;51.040;13.680;2023-05-07T17:59:27;7.30;;;6.40;;
25637;SDS011;13496;51.040;13.680;2023-05-07T18:04:29;6.95;;;6.10;;
25637;SDS011;13496;51.040;13.680;2023-05-07T18:09:30;7.85;;;7.05;;
25637;SDS011;13496;51.040;13.680;2023-05-07T18:14:32;8.02;;;6.28;;
25637;SDS011;13496;51.040;13.680;2023-05-07T18:19:34;9.95;;;7.05;;
25637;SDS011;13496;51.040;13.680;2023-05-07T18:24:35;6.85;;;6.22;;
25637;SDS011;13496;51.040;13.680;2023-05-07T18:29:37;7.68;;;6.82;;
25637;SDS011;13496;51.040;13.680;2023-05-07T18:34:39;7.00;;;6.30;;
25637;SDS011;13496;51.040;13.680;2023-05-07T18:39:41;7.13;;;6.40;;
25637;SDS011;13496;51.040;13.680;2023-05-07T18:44:46;7.22;;;6.53;;
25637;SDS011;13496;51.040;13.680;2023-05-07T18:49:48;6.65;;;5.93;;
25637;SDS011;13496;51.040;13.680;2023-05-07T18:54:49;8.13;;;6.18;;
25637;SDS011;13496;51.040;13.680;2023-05-07T18:59:52;9.65;;;6.05;;
25637;SDS011;13496;51.040;13.680;2023-05-07T19:04:55;7.75;;;6.15;;
25637;SDS011;13496;51.040;13.680;2023-05-07T19:09:56;6.95;;;6.15;;
25637;SDS011;13496;51.040;13.680;2023-05-07T19:14:58;7.78;;;5.80;;
25637;SDS011;13496;51.040;13.680;2023-05-07T19:20:00;6.35;;;5.75;;
25637;SDS011;13496;51.040;13.680;2023-05-07T19:25:01;6.30;;;5.70;;
25637;SDS011;13496;51.040;13.680;2023-05-07T19:30:07;6.47;;;5.85;;
25637;SDS011;13496;51.040;13.680;2023-05-07T19:35:09;5.97;;;5.38;;
25637;SDS011;13496;51.040;13.680;2023-05-07T19:40:11;6.22;;;5.25;;
25637;SDS011;13496;51.040;13.680;2023-05-07T19:45:13;7.70;;;5.85;;
25637;SDS011;13496;51.040;13.680;2023-05-07T19:50:15;7.03;;;5.60;;
25637;SDS011;13496;51.040;13.680;2023-05-07T19:55:17;6.82;;;5.60;;
25637;SDS011;13496;51.040;13.680;2023-05-07T20:00:19;5.95;;;5.35;;
25637;SDS011;13496;51.040;13.680;2023-05-07T20:05:22;5.60;;;5.10;;
25637;SDS011;13496;51.040;13.680;2023-05-07T20:10:25;5.95;;;5.40;;
25637;SDS011;13496;51.040;13.680;2023-05-07T20:15:27;6.40;;;5.25;;
25637;SDS011;13496;51.040;13.680;2023-05-07T20:20:29;5.85;;;5.00;;
25637;SDS011;13496;51.040;13.680;2023-05-07T20:25:31;6.28;;;5.00;;
25637;SDS011;13496;51.040;13.680;2023-05-07T20:30:32;5.68;;;5.10;;
25637;SDS011;13496;51.040;13.680;2023-05-07T20:35:34;6.22;;;5.18;;
25637;SDS011;13496;51.040;13.680;2023-05-07T20:40:36;4.97;;;4.47;;
25637;SDS011;13496;51.040;13.680;2023-05-07T20:45:38;5.53;;;4.82;;
25637;SDS011;13496;51.040;13.680;2023-05-07T20:50:40;5.82;;;5.32;;
25637;SDS011;13496;51.040;13.680;2023-05-07T20:55:41;5.30;;;4.80;;
25637;SDS011;13496;51.040;13.680;2023-05-07T21:00:43;6.85;;;5.03;;
25637;SDS011;13496;51.040;13.680;2023-05-07T21:05:51;5.53;;;5.03;;
25637;SDS011;13496;51.040;13.680;2023-05-07T21:10:54;5.53;;;5.03;;
25637;SDS011;13496;51.040;13.680;2023-05-07T21:15:56;5.88;;;5.15;;
25637;SDS011;13496;51.040;13.680;2023-05-07T21:20:57;6.00;;;4.82;;
25637;SDS011;13496;51.040;13.680;2023-05-07T21:25:59;6.05;;;4.68;;
25637;SDS011;13496;51.040;13.680;2023-05-07T21:31:01;5.53;;;4.97;;
25637;SDS011;13496;51.040;13.680;2023-05-07T21:36:02;5.43;;;4.93;;
25637;SDS011;13496;51.040;13.680;2023-05-07T21:41:04;5.18;;;4.53;;
25637;SDS011;13496;51.040;13.680;2023-05-07T21:46:07;5.43;;;4.93;;
25637;SDS011;13496;51.040;13.680;2023-05-07T21:51:09;5.22;;;4.72;;
25637;SDS011;13496;51.040;13.680;2023-05-07T21:56:10;4.95;;;4.47;;
25637;SDS011;13496;51.040;13.680;2023-05-07T22:01:12;6.05;;;4.53;;
25637;SDS011;13496;51.040;13.680;2023-05-07T22:06:14;4.82;;;4.32;;
25637;SDS011;13496;51.040;13.680;2023-05-07T22:11:21;5.13;;;4.72;;
25637;SDS011;13496;51.040;13.680;2023-05-07T22:16:23;4.90;;;4.40;;
25637;SDS011;13496;51.040;13.680;2023-05-07T22:21:25;4.90;;;4.40;;
25637;SDS011;13496;51.040;13.680;2023-05-07T22:26:26;4.97;;;4.43;;
25637;SDS011;13496;51.040;13.680;2023-05-07T22:31:28;5.10;;;4.60;;
25637;SDS011;13496;51.040;13.680;2023-05-07T22:36:30;5.20;;;4.10;;
25637;SDS011;13496;51.040;13.680;2023-05-07T22:41:31;4.70;;;4.30;;
25637;SDS011;13496;51.040;13.680;2023-05-07T22:46:33;4.63;;;4.22;;
25637;SDS011;13496;51.040;13.680;2023-05-07T22:51:35;5.07;;;4.30;;
25637;SDS011;13496;51.040;13.680;2023-05-07T22:56:36;4.50;;;4.13;;
25637;SDS011;13496;51.040;13.680;2023-05-07T23:01:40;4.15;;;3.85;;
25637;SDS011;13496;51.040;13.680;2023-05-07T23:06:42;4.22;;;3.80;;
25637;SDS011;13496;51.040;13.680;2023-05-07T23:11:44;4.43;;;4.05;;
25637;SDS011;13496;51.040;13.680;2023-05-07T23:16:46;4.13;;;3.78;;
25637;SDS011;13496;51.040;13.680;2023-05-07T23:21:47;4.38;;;3.90;;
25637;SDS011;13496;51.040;13.680;2023-05-07T23:26:49;4.00;;;3.67;;
25637;SDS011;13496;51.040;13.680;2023-05-07T23:31:51;4.55;;;4.15;;
25637;SDS011;13496;51.040;13.680;2023-05-07T23:36:53;4.25;;;3.85;;
25637;SDS011;13496;51.040;13.680;2023-05-07T23:41:54;4.13;;;3.83;;
25637;SDS011;13496;51.040;13.680;2023-05-07T23:46:56;4.00;;;3.70;;
25637;SDS011;13496;51.040;13.680;2023-05-07T23:51:58;4.00;;;3.70;;
25637;SDS011;13496;51.040;13.680;2023-05-07T23:56:59;3.90;;;3.60;;
